sensor_id;sensor_type;location;lat;lon;timestamp;temperature;humidity
49489;SHT31;35382;51.484;11.476;2023-07-20T00:01:30;14.99;91.03
49489;SHT31;35382;51.484;11.476;2023-07-20T00:03:13;15.01;90.56
49489;SHT31;35382;51.484;11.476;2023-07-20T00:04:57;14.99;90.40
49489;SHT31;35382;51.484;11.476;2023-07-20T00:06:38;15.04;90.58
49489;SHT31;35382;51.484;11.476;2023-07-20T00:08:21;15.08;90.43
49489;SHT31;35382;51.484;11.476;2023-07-20T00:10:02;15.12;89.91
49489;SHT31;35382;51.484;11.476;2023-07-20T00:11:49;15.05;89.87
49489;SHT31;35382;51.484;11.476;2023-07-20T00:13:31;15.01;90.17
49489;SHT31;35382;51.484;11.476;2023-07-20T00:15:12;15.02;90.50
49489;SHT31;35382;51.484;11.476;2023-07-20T00:16:55;15.08;90.48
49489;SHT31;35382;51.484;11.476;2023-07-20T00:18:36;15.12;90.09
49489;SHT31;35382;51.484;11.476;2023-07-20T00:20:17;15.05;90.30
49489;SHT31;35382;51.484;11.476;2023-07-20T00:21:58;15.08;90.43
49489;SHT31;35382;51.484;11.476;2023-07-20T00:23:39;15.08;90.68
49489;SHT31;35382;51.484;11.476;2023-07-20T00:25:20;15.09;90.50
49489;SHT31;35382;51.484;11.476;2023-07-20T00:27:01;15.12;90.29
49489;SHT31;35382;51.484;11.476;2023-07-20T00:28:43;15.09;90.23
49489;SHT31;35382;51.484;11.476;2023-07-20T00:30:24;14.99;90.46
49489;SHT31;35382;51.484;11.476;2023-07-20T00:32:05;14.94;90.66
49489;SHT31;35382;51.484;11.476;2023-07-20T00:33:47;14.95;90.55
49489;SHT31;35382;51.484;11.476;2023-07-20T00:35:28;14.98;90.12
49489;SHT31;35382;51.484;11.476;2023-07-20T00:37:09;14.91;90.30
49489;SHT31;35382;51.484;11.476;2023-07-20T00:38:50;14.78;90.76
49489;SHT31;35382;51.484;11.476;2023-07-20T00:40:40;14.73;91.04
49489;SHT31;35382;51.484;11.476;2023-07-20T00:42:22;14.81;90.84
49489;SHT31;35382;51.484;11.476;2023-07-20T00:44:03;14.84;90.29
49489;SHT31;35382;51.484;11.476;2023-07-20T00:45:44;14.87;90.23
49489;SHT31;35382;51.484;11.476;2023-07-20T00:47:26;14.87;90.47
49489;SHT31;35382;51.484;11.476;2023-07-20T00:49:07;14.94;90.65
49489;SHT31;35382;51.484;11.476;2023-07-20T00:50:48;14.96;90.54
49489;SHT31;35382;51.484;11.476;2023-07-20T00:52:30;14.98;90.55
49489;SHT31;35382;51.484;11.476;2023-07-20T00:54:12;15.01;90.55
49489;SHT31;35382;51.484;11.476;2023-07-20T00:55:53;15.04;90.34
49489;SHT31;35382;51.484;11.476;2023-07-20T00:57:34;15.04;90.13
49489;SHT31;35382;51.484;11.476;2023-07-20T00:59:15;15.09;90.28
49489;SHT31;35382;51.484;11.476;2023-07-20T01:00:56;15.07;90.15
49489;SHT31;35382;51.484;11.476;2023-07-20T01:02:36;14.95;90.42
49489;SHT31;35382;51.484;11.476;2023-07-20T01:04:18;14.78;91.13
49489;SHT31;35382;51.484;11.476;2023-07-20T01:07:58;14.89;91.20
49489;SHT31;35382;51.484;11.476;2023-07-20T01:09:57;14.91;90.99
49489;SHT31;35382;51.484;11.476;2023-07-20T01:11:56;14.92;90.97
49489;SHT31;35382;51.484;11.476;2023-07-20T01:13:39;14.94;90.90
49489;SHT31;35382;51.484;11.476;2023-07-20T01:15:21;15.02;90.88
49489;SHT31;35382;51.484;11.476;2023-07-20T01:17:02;15.05;90.70
49489;SHT31;35382;51.484;11.476;2023-07-20T01:18:43;15.07;90.57
49489;SHT31;35382;51.484;11.476;2023-07-20T01:20:25;15.09;90.53
49489;SHT31;35382;51.484;11.476;2023-07-20T01:24:17;15.14;90.26
49489;SHT31;35382;51.484;11.476;2023-07-20T01:30:20;15.18;90.64
49489;SHT31;35382;51.484;11.476;2023-07-20T01:32:07;15.25;90.47
49489;SHT31;35382;51.484;11.476;2023-07-20T01:33:51;15.24;90.55
49489;SHT31;35382;51.484;11.476;2023-07-20T01:35:33;15.24;90.78
49489;SHT31;35382;51.484;11.476;2023-07-20T01:37:15;15.22;90.88
49489;SHT31;35382;51.484;11.476;2023-07-20T01:38:57;15.22;90.95
49489;SHT31;35382;51.484;11.476;2023-07-20T01:40:39;15.29;90.96
49489;SHT31;35382;51.484;11.476;2023-07-20T01:42:24;15.31;90.95
49489;SHT31;35382;51.484;11.476;2023-07-20T01:44:05;15.29;90.83
49489;SHT31;35382;51.484;11.476;2023-07-20T01:45:46;15.31;90.92
49489;SHT31;35382;51.484;11.476;2023-07-20T01:47:28;15.27;90.84
49489;SHT31;35382;51.484;11.476;2023-07-20T01:49:09;15.28;91.10
49489;SHT31;35382;51.484;11.476;2023-07-20T01:50:50;15.29;91.15
49489;SHT31;35382;51.484;11.476;2023-07-20T01:52:31;15.29;91.09
49489;SHT31;35382;51.484;11.476;2023-07-20T01:54:12;15.31;91.12
49489;SHT31;35382;51.484;11.476;2023-07-20T01:55:53;15.31;91.21
49489;SHT31;35382;51.484;11.476;2023-07-20T01:57:35;15.34;91.20
49489;SHT31;35382;51.484;11.476;2023-07-20T01:59:16;15.32;91.24
49489;SHT31;35382;51.484;11.476;2023-07-20T02:00:57;15.32;91.06
49489;SHT31;35382;51.484;11.476;2023-07-20T02:02:38;15.34;91.12
49489;SHT31;35382;51.484;11.476;2023-07-20T02:04:20;15.35;90.87
49489;SHT31;35382;51.484;11.476;2023-07-20T02:06:01;15.35;90.82
49489;SHT31;35382;51.484;11.476;2023-07-20T02:07:42;15.38;90.63
49489;SHT31;35382;51.484;11.476;2023-07-20T02:09:23;15.38;90.54
49489;SHT31;35382;51.484;11.476;2023-07-20T02:11:04;15.41;90.63
49489;SHT31;35382;51.484;11.476;2023-07-20T02:12:46;15.35;90.80
49489;SHT31;35382;51.484;11.476;2023-07-20T02:14:26;15.42;90.75
49489;SHT31;35382;51.484;11.476;2023-07-20T02:16:08;15.34;90.78
49489;SHT31;35382;51.484;11.476;2023-07-20T02:17:49;15.35;90.91
49489;SHT31;35382;51.484;11.476;2023-07-20T02:19:30;15.32;91.20
49489;SHT31;35382;51.484;11.476;2023-07-20T02:21:11;15.32;91.21
49489;SHT31;35382;51.484;11.476;2023-07-20T02:22:52;15.34;91.12
49489;SHT31;35382;51.484;11.476;2023-07-20T02:24:33;15.35;90.92
49489;SHT31;35382;51.484;11.476;2023-07-20T02:26:14;15.38;90.70
49489;SHT31;35382;51.484;11.476;2023-07-20T02:27:56;15.45;90.39
49489;SHT31;35382;51.484;11.476;2023-07-20T02:29:37;15.41;90.29
49489;SHT31;35382;51.484;11.476;2023-07-20T02:31:18;15.36;90.57
49489;SHT31;35382;51.484;11.476;2023-07-20T02:32:59;15.36;90.49
49489;SHT31;35382;51.484;11.476;2023-07-20T02:34:40;15.35;90.34
49489;SHT31;35382;51.484;11.476;2023-07-20T02:36:21;15.35;90.36
49489;SHT31;35382;51.484;11.476;2023-07-20T02:38:02;15.28;90.54
49489;SHT31;35382;51.484;11.476;2023-07-20T02:39:44;15.29;90.51
49489;SHT31;35382;51.484;11.476;2023-07-20T02:41:25;15.28;90.48
49489;SHT31;35382;51.484;11.476;2023-07-20T02:43:06;15.25;90.53
49489;SHT31;35382;51.484;11.476;2023-07-20T02:44:47;15.29;90.31
49489;SHT31;35382;51.484;11.476;2023-07-20T02:46:27;15.27;90.46
49489;SHT31;35382;51.484;11.476;2023-07-20T02:48:10;15.18;90.69
49489;SHT31;35382;51.484;11.476;2023-07-20T02:49:51;15.14;90.98
49489;SHT31;35382;51.484;11.476;2023-07-20T02:51:33;15.18;91.28
49489;SHT31;35382;51.484;11.476;2023-07-20T02:53:14;15.19;91.60
49489;SHT31;35382;51.484;11.476;2023-07-20T02:54:55;15.21;91.64
49489;SHT31;35382;51.484;11.476;2023-07-20T02:56:36;15.22;91.67
49489;SHT31;35382;51.484;11.476;2023-07-20T02:58:17;15.22;91.93
49489;SHT31;35382;51.484;11.476;2023-07-20T02:59:58;15.25;91.96
49489;SHT31;35382;51.484;11.476;2023-07-20T03:01:39;15.25;91.36
49489;SHT31;35382;51.484;11.476;2023-07-20T03:03:20;15.22;91.10
49489;SHT31;35382;51.484;11.476;2023-07-20T03:05:01;15.27;90.87
49489;SHT31;35382;51.484;11.476;2023-07-20T03:06:43;15.19;90.76
49489;SHT31;35382;51.484;11.476;2023-07-20T03:08:24;15.19;90.89
49489;SHT31;35382;51.484;11.476;2023-07-20T03:10:06;15.12;91.33
49489;SHT31;35382;51.484;11.476;2023-07-20T03:11:50;15.05;91.51
49489;SHT31;35382;51.484;11.476;2023-07-20T03:13:31;15.04;91.76
49489;SHT31;35382;51.484;11.476;2023-07-20T03:15:12;15.01;91.91
49489;SHT31;35382;51.484;11.476;2023-07-20T03:16:54;15.02;92.03
49489;SHT31;35382;51.484;11.476;2023-07-20T03:18:35;14.98;92.38
49489;SHT31;35382;51.484;11.476;2023-07-20T03:20:16;14.98;92.44
49489;SHT31;35382;51.484;11.476;2023-07-20T03:21:57;15.02;92.52
49489;SHT31;35382;51.484;11.476;2023-07-20T03:23:39;15.01;92.39
49489;SHT31;35382;51.484;11.476;2023-07-20T03:25:20;15.02;92.43
49489;SHT31;35382;51.484;11.476;2023-07-20T03:27:02;15.07;92.32
49489;SHT31;35382;51.484;11.476;2023-07-20T03:28:43;15.04;92.41
49489;SHT31;35382;51.484;11.476;2023-07-20T03:30:25;15.04;92.49
49489;SHT31;35382;51.484;11.476;2023-07-20T03:32:07;15.01;92.48
49489;SHT31;35382;51.484;11.476;2023-07-20T03:33:48;14.99;92.59
49489;SHT31;35382;51.484;11.476;2023-07-20T03:35:29;14.98;92.58
49489;SHT31;35382;51.484;11.476;2023-07-20T03:37:10;14.98;92.61
49489;SHT31;35382;51.484;11.476;2023-07-20T03:38:51;14.98;92.72
49489;SHT31;35382;51.484;11.476;2023-07-20T03:40:32;15.01;92.69
49489;SHT31;35382;51.484;11.476;2023-07-20T03:42:13;15.01;92.42
49489;SHT31;35382;51.484;11.476;2023-07-20T03:43:54;15.04;92.24
49489;SHT31;35382;51.484;11.476;2023-07-20T03:45:35;14.99;92.18
49489;SHT31;35382;51.484;11.476;2023-07-20T03:47:16;14.95;92.25
49489;SHT31;35382;51.484;11.476;2023-07-20T03:48:57;14.98;92.41
49489;SHT31;35382;51.484;11.476;2023-07-20T03:50:38;14.96;92.55
49489;SHT31;35382;51.484;11.476;2023-07-20T03:52:19;14.96;92.58
49489;SHT31;35382;51.484;11.476;2023-07-20T03:54:00;14.91;92.42
49489;SHT31;35382;51.484;11.476;2023-07-20T03:55:45;14.95;92.55
49489;SHT31;35382;51.484;11.476;2023-07-20T03:57:27;14.91;92.62
49489;SHT31;35382;51.484;11.476;2023-07-20T03:59:08;14.92;92.52
49489;SHT31;35382;51.484;11.476;2023-07-20T04:00:50;14.92;92.28
49489;SHT31;35382;51.484;11.476;2023-07-20T04:02:32;14.92;92.13
49489;SHT31;35382;51.484;11.476;2023-07-20T04:04:15;14.94;91.68
49489;SHT31;35382;51.484;11.476;2023-07-20T04:05:56;14.96;91.49
49489;SHT31;35382;51.484;11.476;2023-07-20T04:07:37;14.96;91.32
49489;SHT31;35382;51.484;11.476;2023-07-20T04:09:18;14.94;91.38
49489;SHT31;35382;51.484;11.476;2023-07-20T04:11:02;14.91;91.44
49489;SHT31;35382;51.484;11.476;2023-07-20T04:12:46;14.91;91.31
49489;SHT31;35382;51.484;11.476;2023-07-20T04:14:28;14.95;90.87
49489;SHT31;35382;51.484;11.476;2023-07-20T04:16:09;14.91;90.87
49489;SHT31;35382;51.484;11.476;2023-07-20T04:17:50;14.89;91.05
49489;SHT31;35382;51.484;11.476;2023-07-20T04:19:31;14.89;91.09
49489;SHT31;35382;51.484;11.476;2023-07-20T04:21:12;14.81;91.49
49489;SHT31;35382;51.484;11.476;2023-07-20T04:22:52;14.78;91.90
49489;SHT31;35382;51.484;11.476;2023-07-20T04:24:34;14.81;92.15
49489;SHT31;35382;51.484;11.476;2023-07-20T04:26:15;14.80;92.74
49489;SHT31;35382;51.484;11.476;2023-07-20T04:27:56;14.81;92.74
49489;SHT31;35382;51.484;11.476;2023-07-20T04:29:37;14.87;92.86
49489;SHT31;35382;51.484;11.476;2023-07-20T04:31:18;14.95;92.86
49489;SHT31;35382;51.484;11.476;2023-07-20T04:32:59;15.02;92.53
49489;SHT31;35382;51.484;11.476;2023-07-20T04:34:41;15.05;92.49
49489;SHT31;35382;51.484;11.476;2023-07-20T04:36:22;15.17;92.24
49489;SHT31;35382;51.484;11.476;2023-07-20T04:38:04;15.18;92.43
49489;SHT31;35382;51.484;11.476;2023-07-20T04:39:46;15.24;92.40
49489;SHT31;35382;51.484;11.476;2023-07-20T04:41:28;15.28;92.40
49489;SHT31;35382;51.484;11.476;2023-07-20T04:43:12;15.34;92.30
49489;SHT31;35382;51.484;11.476;2023-07-20T04:44:53;15.36;92.18
49489;SHT31;35382;51.484;11.476;2023-07-20T04:46:34;15.41;92.09
49489;SHT31;35382;51.484;11.476;2023-07-20T04:48:17;15.41;91.86
49489;SHT31;35382;51.484;11.476;2023-07-20T04:50:04;15.36;91.90
49489;SHT31;35382;51.484;11.476;2023-07-20T04:51:46;15.39;91.99
49489;SHT31;35382;51.484;11.476;2023-07-20T04:53:27;15.41;91.81
49489;SHT31;35382;51.484;11.476;2023-07-20T04:55:08;15.41;91.70
49489;SHT31;35382;51.484;11.476;2023-07-20T04:56:49;15.46;91.66
49489;SHT31;35382;51.484;11.476;2023-07-20T04:58:31;15.39;91.86
49489;SHT31;35382;51.484;11.476;2023-07-20T05:00:12;15.36;91.91
49489;SHT31;35382;51.484;11.476;2023-07-20T05:01:54;15.39;91.96
49489;SHT31;35382;51.484;11.476;2023-07-20T05:03:35;15.45;91.73
49489;SHT31;35382;51.484;11.476;2023-07-20T05:05:16;15.49;91.68
49489;SHT31;35382;51.484;11.476;2023-07-20T05:06:57;15.51;91.49
49489;SHT31;35382;51.484;11.476;2023-07-20T05:08:38;15.61;91.23
49489;SHT31;35382;51.484;11.476;2023-07-20T05:10:19;15.69;91.32
49489;SHT31;35382;51.484;11.476;2023-07-20T05:12:01;15.73;91.22
49489;SHT31;35382;51.484;11.476;2023-07-20T05:13:43;15.79;91.22
49489;SHT31;35382;51.484;11.476;2023-07-20T05:15:24;15.85;91.21
49489;SHT31;35382;51.484;11.476;2023-07-20T05:17:07;15.93;91.36
49489;SHT31;35382;51.484;11.476;2023-07-20T05:18:48;16.09;91.19
49489;SHT31;35382;51.484;11.476;2023-07-20T05:20:29;16.30;90.70
49489;SHT31;35382;51.484;11.476;2023-07-20T05:22:10;16.33;90.07
49489;SHT31;35382;51.484;11.476;2023-07-20T05:23:52;16.26;89.75
49489;SHT31;35382;51.484;11.476;2023-07-20T05:25:33;16.29;89.19
49489;SHT31;35382;51.484;11.476;2023-07-20T05:27:14;16.31;88.82
49489;SHT31;35382;51.484;11.476;2023-07-20T05:28:55;16.26;89.01
49489;SHT31;35382;51.484;11.476;2023-07-20T05:30:36;16.21;89.36
49489;SHT31;35382;51.484;11.476;2023-07-20T05:32:17;16.12;89.00
49489;SHT31;35382;51.484;11.476;2023-07-20T05:33:58;16.03;88.89
49489;SHT31;35382;51.484;11.476;2023-07-20T05:35:39;15.95;88.92
49489;SHT31;35382;51.484;11.476;2023-07-20T05:37:20;15.96;89.14
49489;SHT31;35382;51.484;11.476;2023-07-20T05:39:02;15.92;89.14
49489;SHT31;35382;51.484;11.476;2023-07-20T05:40:44;15.90;89.19
49489;SHT31;35382;51.484;11.476;2023-07-20T05:42:25;15.90;89.68
49489;SHT31;35382;51.484;11.476;2023-07-20T05:44:07;15.93;90.07
49489;SHT31;35382;51.484;11.476;2023-07-20T05:45:48;15.92;90.18
49489;SHT31;35382;51.484;11.476;2023-07-20T05:47:29;15.97;90.12
49489;SHT31;35382;51.484;11.476;2023-07-20T05:49:10;16.06;90.18
49489;SHT31;35382;51.484;11.476;2023-07-20T05:50:51;16.07;89.75
49489;SHT31;35382;51.484;11.476;2023-07-20T05:52:32;16.10;89.63
49489;SHT31;35382;51.484;11.476;2023-07-20T05:54:14;16.10;89.64
49489;SHT31;35382;51.484;11.476;2023-07-20T05:55:55;16.12;89.30
49489;SHT31;35382;51.484;11.476;2023-07-20T05:57:36;16.19;89.73
49489;SHT31;35382;51.484;11.476;2023-07-20T05:59:20;16.36;89.79
49489;SHT31;35382;51.484;11.476;2023-07-20T06:01:01;16.36;89.53
49489;SHT31;35382;51.484;11.476;2023-07-20T06:02:43;16.26;89.84
49489;SHT31;35382;51.484;11.476;2023-07-20T06:04:26;16.23;90.10
49489;SHT31;35382;51.484;11.476;2023-07-20T06:06:07;16.10;89.80
49489;SHT31;35382;51.484;11.476;2023-07-20T06:07:50;16.12;89.98
49489;SHT31;35382;51.484;11.476;2023-07-20T06:09:31;16.06;90.20
49489;SHT31;35382;51.484;11.476;2023-07-20T06:11:14;16.07;90.67
49489;SHT31;35382;51.484;11.476;2023-07-20T06:12:55;16.12;90.49
49489;SHT31;35382;51.484;11.476;2023-07-20T06:14:36;16.10;90.49
49489;SHT31;35382;51.484;11.476;2023-07-20T06:16:17;16.09;90.46
49489;SHT31;35382;51.484;11.476;2023-07-20T06:17:58;16.09;90.35
49489;SHT31;35382;51.484;11.476;2023-07-20T06:19:39;16.06;89.84
49489;SHT31;35382;51.484;11.476;2023-07-20T06:21:21;16.13;89.96
49489;SHT31;35382;51.484;11.476;2023-07-20T06:23:03;16.19;90.22
49489;SHT31;35382;51.484;11.476;2023-07-20T06:24:44;16.23;89.91
49489;SHT31;35382;51.484;11.476;2023-07-20T06:26:25;16.37;89.92
49489;SHT31;35382;51.484;11.476;2023-07-20T06:28:06;16.63;89.50
49489;SHT31;35382;51.484;11.476;2023-07-20T06:29:47;17.08;87.43
49489;SHT31;35382;51.484;11.476;2023-07-20T06:31:28;17.11;86.72
49489;SHT31;35382;51.484;11.476;2023-07-20T06:33:09;16.84;87.66
49489;SHT31;35382;51.484;11.476;2023-07-20T06:34:50;16.77;87.99
49489;SHT31;35382;51.484;11.476;2023-07-20T06:36:31;16.74;87.78
49489;SHT31;35382;51.484;11.476;2023-07-20T06:38:12;16.80;87.80
49489;SHT31;35382;51.484;11.476;2023-07-20T06:39:53;16.85;87.73
49489;SHT31;35382;51.484;11.476;2023-07-20T06:41:34;16.89;88.43
49489;SHT31;35382;51.484;11.476;2023-07-20T06:43:16;16.95;87.94
49489;SHT31;35382;51.484;11.476;2023-07-20T06:44:57;17.03;87.59
49489;SHT31;35382;51.484;11.476;2023-07-20T06:46:38;17.24;88.33
49489;SHT31;35382;51.484;11.476;2023-07-20T06:48:19;17.22;87.72
49489;SHT31;35382;51.484;11.476;2023-07-20T06:50:00;17.21;87.96
49489;SHT31;35382;51.484;11.476;2023-07-20T06:51:41;17.32;88.14
49489;SHT31;35382;51.484;11.476;2023-07-20T06:53:22;17.39;87.93
49489;SHT31;35382;51.484;11.476;2023-07-20T06:55:03;17.32;86.39
49489;SHT31;35382;51.484;11.476;2023-07-20T06:56:44;17.35;86.90
49489;SHT31;35382;51.484;11.476;2023-07-20T06:58:25;17.32;86.86
49489;SHT31;35382;51.484;11.476;2023-07-20T07:00:07;17.34;86.80
49489;SHT31;35382;51.484;11.476;2023-07-20T07:01:48;17.36;86.36
49489;SHT31;35382;51.484;11.476;2023-07-20T07:03:29;17.39;85.80
49489;SHT31;35382;51.484;11.476;2023-07-20T07:05:11;17.48;86.42
49489;SHT31;35382;51.484;11.476;2023-07-20T07:06:55;17.55;85.16
49489;SHT31;35382;51.484;11.476;2023-07-20T07:08:36;17.66;84.56
49489;SHT31;35382;51.484;11.476;2023-07-20T07:10:17;17.78;85.41
49489;SHT31;35382;51.484;11.476;2023-07-20T07:11:58;17.99;85.21
49489;SHT31;35382;51.484;11.476;2023-07-20T07:13:40;17.99;84.98
49489;SHT31;35382;51.484;11.476;2023-07-20T07:15:21;17.93;85.38
49489;SHT31;35382;51.484;11.476;2023-07-20T07:17:02;17.92;85.91
49489;SHT31;35382;51.484;11.476;2023-07-20T07:18:43;17.76;85.13
49489;SHT31;35382;51.484;11.476;2023-07-20T07:20:25;17.72;84.95
49489;SHT31;35382;51.484;11.476;2023-07-20T07:22:06;17.69;86.21
49489;SHT31;35382;51.484;11.476;2023-07-20T07:23:47;17.61;86.36
49489;SHT31;35382;51.484;11.476;2023-07-20T07:25:28;17.73;85.42
49489;SHT31;35382;51.484;11.476;2023-07-20T07:27:10;17.97;84.57
49489;SHT31;35382;51.484;11.476;2023-07-20T07:28:51;18.12;84.42
49489;SHT31;35382;51.484;11.476;2023-07-20T07:30:32;18.34;83.41
49489;SHT31;35382;51.484;11.476;2023-07-20T07:32:13;18.78;82.58
49489;SHT31;35382;51.484;11.476;2023-07-20T07:33:54;18.83;82.48
49489;SHT31;35382;51.484;11.476;2023-07-20T07:35:36;18.70;81.79
49489;SHT31;35382;51.484;11.476;2023-07-20T07:37:18;18.54;83.19
49489;SHT31;35382;51.484;11.476;2023-07-20T07:39:00;18.36;82.23
49489;SHT31;35382;51.484;11.476;2023-07-20T07:40:41;18.37;82.94
49489;SHT31;35382;51.484;11.476;2023-07-20T07:42:22;18.09;83.22
49489;SHT31;35382;51.484;11.476;2023-07-20T07:44:04;17.96;81.85
49489;SHT31;35382;51.484;11.476;2023-07-20T07:45:45;18.44;82.00
49489;SHT31;35382;51.484;11.476;2023-07-20T07:47:26;19.05;80.85
49489;SHT31;35382;51.484;11.476;2023-07-20T07:49:07;19.18;80.64
49489;SHT31;35382;51.484;11.476;2023-07-20T07:50:48;18.95;79.51
49489;SHT31;35382;51.484;11.476;2023-07-20T07:52:30;19.34;78.82
49489;SHT31;35382;51.484;11.476;2023-07-20T07:54:11;19.05;79.69
49489;SHT31;35382;51.484;11.476;2023-07-20T07:55:53;18.67;78.93
49489;SHT31;35382;51.484;11.476;2023-07-20T07:57:34;18.71;81.83
49489;SHT31;35382;51.484;11.476;2023-07-20T07:59:15;18.80;80.01
49489;SHT31;35382;51.484;11.476;2023-07-20T08:00:57;18.78;78.81
49489;SHT31;35382;51.484;11.476;2023-07-20T08:02:38;18.75;81.53
49489;SHT31;35382;51.484;11.476;2023-07-20T08:04:20;18.60;80.87
49489;SHT31;35382;51.484;11.476;2023-07-20T08:06:04;18.33;80.55
49489;SHT31;35382;51.484;11.476;2023-07-20T08:07:45;18.33;81.75
49489;SHT31;35382;51.484;11.476;2023-07-20T08:09:26;18.29;82.26
49489;SHT31;35382;51.484;11.476;2023-07-20T08:11:07;18.12;81.60
49489;SHT31;35382;51.484;11.476;2023-07-20T08:12:48;18.05;82.57
49489;SHT31;35382;51.484;11.476;2023-07-20T08:14:32;18.05;83.50
49489;SHT31;35382;51.484;11.476;2023-07-20T08:16:13;18.03;82.26
49489;SHT31;35382;51.484;11.476;2023-07-20T08:17:54;17.97;82.18
49489;SHT31;35382;51.484;11.476;2023-07-20T08:19:37;17.82;82.27
49489;SHT31;35382;51.484;11.476;2023-07-20T08:21:22;17.69;82.40
49489;SHT31;35382;51.484;11.476;2023-07-20T08:23:03;17.55;82.83
49489;SHT31;35382;51.484;11.476;2023-07-20T08:24:44;17.59;84.75
49489;SHT31;35382;51.484;11.476;2023-07-20T08:26:25;17.53;84.34
49489;SHT31;35382;51.484;11.476;2023-07-20T08:28:07;17.49;85.27
49489;SHT31;35382;51.484;11.476;2023-07-20T08:29:48;17.45;85.58
49489;SHT31;35382;51.484;11.476;2023-07-20T08:31:30;17.27;85.26
49489;SHT31;35382;51.484;11.476;2023-07-20T08:33:13;17.21;86.39
49489;SHT31;35382;51.484;11.476;2023-07-20T08:34:54;17.15;86.07
49489;SHT31;35382;51.484;11.476;2023-07-20T08:36:36;17.11;86.52
49489;SHT31;35382;51.484;11.476;2023-07-20T08:38:22;17.07;86.51
49489;SHT31;35382;51.484;11.476;2023-07-20T08:40:03;17.03;87.64
49489;SHT31;35382;51.484;11.476;2023-07-20T08:41:46;17.05;88.23
49489;SHT31;35382;51.484;11.476;2023-07-20T08:43:27;17.07;88.82
49489;SHT31;35382;51.484;11.476;2023-07-20T08:45:09;16.97;88.00
49489;SHT31;35382;51.484;11.476;2023-07-20T08:46:51;16.85;88.87
49489;SHT31;35382;51.484;11.476;2023-07-20T08:48:35;16.68;88.47
49489;SHT31;35382;51.484;11.476;2023-07-20T08:50:16;16.56;88.16
49489;SHT31;35382;51.484;11.476;2023-07-20T08:51:58;16.43;88.07
49489;SHT31;35382;51.484;11.476;2023-07-20T08:53:39;16.40;88.01
49489;SHT31;35382;51.484;11.476;2023-07-20T08:55:23;16.30;88.31
49489;SHT31;35382;51.484;11.476;2023-07-20T08:57:05;16.23;88.53
49489;SHT31;35382;51.484;11.476;2023-07-20T08:58:48;16.29;88.86
49489;SHT31;35382;51.484;11.476;2023-07-20T09:00:29;16.37;89.22
49489;SHT31;35382;51.484;11.476;2023-07-20T09:02:12;16.43;88.97
49489;SHT31;35382;51.484;11.476;2023-07-20T09:03:59;16.49;88.60
49489;SHT31;35382;51.484;11.476;2023-07-20T09:05:40;16.57;89.48
49489;SHT31;35382;51.484;11.476;2023-07-20T09:07:21;16.64;89.77
49489;SHT31;35382;51.484;11.476;2023-07-20T09:09:02;16.68;89.44
49489;SHT31;35382;51.484;11.476;2023-07-20T09:10:44;16.80;89.32
49489;SHT31;35382;51.484;11.476;2023-07-20T09:12:25;16.83;88.54
49489;SHT31;35382;51.484;11.476;2023-07-20T09:14:08;16.97;89.45
49489;SHT31;35382;51.484;11.476;2023-07-20T09:15:55;16.84;87.33
49489;SHT31;35382;51.484;11.476;2023-07-20T09:17:36;16.74;87.15
49489;SHT31;35382;51.484;11.476;2023-07-20T09:19:18;16.74;88.38
49489;SHT31;35382;51.484;11.476;2023-07-20T09:21:06;16.80;88.47
49489;SHT31;35382;51.484;11.476;2023-07-20T09:22:47;16.61;85.79
49489;SHT31;35382;51.484;11.476;2023-07-20T09:24:28;16.92;87.10
49489;SHT31;35382;51.484;11.476;2023-07-20T09:26:13;17.51;87.20
49489;SHT31;35382;51.484;11.476;2023-07-20T09:27:54;17.83;86.79
49489;SHT31;35382;51.484;11.476;2023-07-20T09:29:47;17.95;85.77
49489;SHT31;35382;51.484;11.476;2023-07-20T09:31:28;18.03;84.97
49489;SHT31;35382;51.484;11.476;2023-07-20T09:33:21;17.92;84.32
49489;SHT31;35382;51.484;11.476;2023-07-20T09:35:02;17.79;84.91
49489;SHT31;35382;51.484;11.476;2023-07-20T09:36:43;17.73;84.74
49489;SHT31;35382;51.484;11.476;2023-07-20T09:38:26;17.53;84.30
49489;SHT31;35382;51.484;11.476;2023-07-20T09:40:07;17.25;84.74
49489;SHT31;35382;51.484;11.476;2023-07-20T09:42:00;17.24;84.51
49489;SHT31;35382;51.484;11.476;2023-07-20T09:43:42;17.22;85.69
49489;SHT31;35382;51.484;11.476;2023-07-20T09:45:23;17.03;85.83
49489;SHT31;35382;51.484;11.476;2023-07-20T09:47:04;16.84;85.77
49489;SHT31;35382;51.484;11.476;2023-07-20T09:48:54;16.56;86.35
49489;SHT31;35382;51.484;11.476;2023-07-20T09:50:56;16.57;87.41
49489;SHT31;35382;51.484;11.476;2023-07-20T09:52:41;16.43;86.65
49489;SHT31;35382;51.484;11.476;2023-07-20T09:54:22;16.43;87.25
49489;SHT31;35382;51.484;11.476;2023-07-20T09:56:07;16.47;87.22
49489;SHT31;35382;51.484;11.476;2023-07-20T09:57:48;16.67;87.15
49489;SHT31;35382;51.484;11.476;2023-07-20T09:59:31;16.87;86.92
49489;SHT31;35382;51.484;11.476;2023-07-20T10:01:13;17.08;87.21
49489;SHT31;35382;51.484;11.476;2023-07-20T10:02:58;17.21;86.15
49489;SHT31;35382;51.484;11.476;2023-07-20T10:04:41;17.45;86.48
49489;SHT31;35382;51.484;11.476;2023-07-20T10:06:24;17.68;86.69
49489;SHT31;35382;51.484;11.476;2023-07-20T10:08:11;17.79;86.28
49489;SHT31;35382;51.484;11.476;2023-07-20T10:09:52;17.90;85.66
49489;SHT31;35382;51.484;11.476;2023-07-20T10:11:35;17.86;84.68
49489;SHT31;35382;51.484;11.476;2023-07-20T10:13:26;17.97;85.22
49489;SHT31;35382;51.484;11.476;2023-07-20T10:15:18;17.96;83.92
49489;SHT31;35382;51.484;11.476;2023-07-20T10:17:01;17.73;84.49
49489;SHT31;35382;51.484;11.476;2023-07-20T10:19:11;17.68;83.93
49489;SHT31;35382;51.484;11.476;2023-07-20T10:20:54;17.69;84.08
49489;SHT31;35382;51.484;11.476;2023-07-20T10:22:36;17.58;83.91
49489;SHT31;35382;51.484;11.476;2023-07-20T10:24:19;17.52;84.23
49489;SHT31;35382;51.484;11.476;2023-07-20T10:26:01;17.49;84.43
49489;SHT31;35382;51.484;11.476;2023-07-20T10:27:43;17.27;83.12
49489;SHT31;35382;51.484;11.476;2023-07-20T10:29:25;17.34;84.41
49489;SHT31;35382;51.484;11.476;2023-07-20T10:31:09;17.43;83.89
49489;SHT31;35382;51.484;11.476;2023-07-20T10:32:51;17.66;83.98
49489;SHT31;35382;51.484;11.476;2023-07-20T10:34:33;17.82;83.78
49489;SHT31;35382;51.484;11.476;2023-07-20T10:36:14;17.92;82.99
49489;SHT31;35382;51.484;11.476;2023-07-20T10:38:00;17.95;82.93
49489;SHT31;35382;51.484;11.476;2023-07-20T10:39:41;18.23;83.98
49489;SHT31;35382;51.484;11.476;2023-07-20T10:43:08;18.34;82.13
49489;SHT31;35382;51.484;11.476;2023-07-20T10:44:51;18.26;83.02